createdAt,value
2022-12-03T00:00:12.534Z,93953.87
2022-12-03T00:01:06.420Z,93951.77
2022-12-03T00:01:39.767Z,93951.84
2022-12-03T00:02:13.202Z,93949.27
2022-12-03T00:02:46.715Z,93950.90
2022-12-03T00:03:20.363Z,93950.91
2022-12-03T00:03:54.920Z,93950.61
2022-12-03T00:04:28.381Z,93949.80
2022-12-03T00:05:01.683Z,93947.39
2022-12-03T00:05:35.118Z,93946.83
2022-12-03T00:06:09.580Z,93950.57
2022-12-03T00:06:42.870Z,93949.77
2022-12-03T00:07:16.995Z,93952.50
2022-12-03T00:07:50.339Z,93952.77
2022-12-03T00:08:23.808Z,93955.17
2022-12-03T00:08:59.124Z,93952.48
2022-12-03T00:09:34.807Z,93952.41
2022-12-03T00:10:09.359Z,93951.62
2022-12-03T00:10:48.644Z,93951.98
2022-12-03T00:11:21.903Z,93952.14
2022-12-03T00:11:57.744Z,93947.99
2022-12-03T00:12:31.005Z,93947.52
2022-12-03T00:13:04.464Z,93946.18
2022-12-03T00:13:37.877Z,93950.23
2022-12-03T00:14:11.268Z,93945.19
2022-12-03T00:14:45.105Z,93948.23
2022-12-03T00:15:18.498Z,93945.62
2022-12-03T00:15:51.823Z,93946.55
2022-12-03T00:16:26.463Z,93945.27
2022-12-03T00:17:00.292Z,93947.98
2022-12-03T00:17:34.113Z,93941.35
2022-12-03T00:18:07.369Z,93943.13
2022-12-03T00:18:42.549Z,93942.77
2022-12-03T00:19:15.671Z,93941.45
2022-12-03T00:19:48.888Z,93946.19
2022-12-03T00:20:26.797Z,93944.55
2022-12-03T00:21:00.073Z,93945.17
2022-12-03T00:21:34.252Z,93945.38
2022-12-03T00:22:07.603Z,93944.40
2022-12-03T00:22:40.986Z,93945.90
2022-12-03T00:23:14.213Z,93947.55
2022-12-03T00:23:47.371Z,93949.45
2022-12-03T00:24:20.670Z,93946.98
2022-12-03T00:24:54.094Z,93949.36
2022-12-03T00:25:28.863Z,93944.14
2022-12-03T00:26:04.648Z,93946.43
2022-12-03T00:26:37.952Z,93944.98
2022-12-03T00:27:11.334Z,93943.94
2022-12-03T00:27:45.154Z,93947.05
2022-12-03T00:28:19.325Z,93947.55
2022-12-03T00:28:54.924Z,93945.55
2022-12-03T00:29:33.043Z,93947.07
2022-12-03T00:30:07.343Z,93951.56
2022-12-03T00:30:40.734Z,93951.73
2022-12-03T00:31:14.163Z,93952.19
2022-12-03T00:31:47.550Z,93949.83
2022-12-03T00:32:20.740Z,93951.59
2022-12-03T00:32:54.202Z,93951.20
2022-12-03T00:33:27.488Z,93951.80
2022-12-03T00:34:00.690Z,93951.80
2022-12-03T00:34:38.668Z,93949.70
2022-12-03T00:35:12.238Z,93949.98
2022-12-03T00:35:45.500Z,93950.02
2022-12-03T00:36:19.670Z,93947.95
2022-12-03T00:36:56.598Z,93948.39
2022-12-03T00:37:29.950Z,93948.81
2022-12-03T00:38:03.466Z,93948.17
2022-12-03T00:38:36.708Z,93947.40
2022-12-03T00:39:10.039Z,93946.14
2022-12-03T00:39:43.338Z,93947.80
2022-12-03T00:40:16.632Z,93950.58
2022-12-03T00:40:51.299Z,93949.48
2022-12-03T00:41:24.794Z,93950.67
2022-12-03T00:41:58.298Z,93949.64
2022-12-03T00:42:31.643Z,93949.86
2022-12-03T00:43:05.340Z,93947.96
2022-12-03T00:43:41.134Z,93950.84
2022-12-03T00:44:14.598Z,93950.38
2022-12-03T00:44:47.754Z,93947.95
2022-12-03T00:45:20.900Z,93952.17
2022-12-03T00:45:58.052Z,93955.29
2022-12-03T00:46:31.536Z,93954.67
2022-12-03T00:47:05.175Z,93952.79
2022-12-03T00:47:40.295Z,93952.70
2022-12-03T00:48:15.613Z,93952.17
2022-12-03T00:48:48.898Z,93952.58
2022-12-03T00:49:22.304Z,93950.52
2022-12-03T00:49:59.572Z,93951.92
2022-12-03T00:50:32.821Z,93951.88
2022-12-03T00:51:06.251Z,93949.46
2022-12-03T00:51:39.520Z,93949.73
2022-12-03T00:52:12.701Z,93949.03
2022-12-03T00:52:46.040Z,93948.16
2022-12-03T00:53:19.288Z,93948.34
2022-12-03T00:53:52.470Z,93953.17
2022-12-03T00:54:31.898Z,93950.98
2022-12-03T00:55:09.370Z,93953.45
2022-12-03T00:55:45.721Z,93954.05
2022-12-03T00:56:18.922Z,93954.67
2022-12-03T00:56:52.285Z,93956.58
2022-12-03T00:57:25.488Z,93954.17
2022-12-03T00:57:58.727Z,93954.35
2022-12-03T00:58:34.464Z,93952.59
2022-12-03T00:59:09.385Z,93950.06
2022-12-03T00:59:42.705Z,93951.86
2022-12-03T01:00:17.961Z,93953.34
2022-12-03T01:00:52.289Z,93957.21
2022-12-03T01:01:25.846Z,93955.73
2022-12-03T01:02:01.695Z,93954.92
2022-12-03T01:02:35.204Z,93954.77
2022-12-03T01:03:13.901Z,93954.48
2022-12-03T01:03:47.117Z,93954.73
2022-12-03T01:04:20.500Z,93955.14
2022-12-03T01:04:56.705Z,93954.80
2022-12-03T01:05:32.229Z,93956.14
2022-12-03T01:06:07.399Z,93949.68
2022-12-03T01:06:40.694Z,93952.10
2022-12-03T01:07:14.616Z,93954.09
2022-12-03T01:07:47.953Z,93953.46
2022-12-03T01:08:24.038Z,93955.53
2022-12-03T01:08:57.542Z,93951.54
2022-12-03T01:09:32.413Z,93956.08
2022-12-03T01:10:07.429Z,93954.50
2022-12-03T01:10:40.956Z,93953.98
2022-12-03T01:11:32.951Z,93954.55
2022-12-03T01:12:08.464Z,93952.61
2022-12-03T01:12:41.603Z,93952.78
2022-12-03T01:13:18.763Z,93954.13
2022-12-03T01:13:51.977Z,93951.54
2022-12-03T01:14:27.712Z,93952.98
2022-12-03T01:15:05.299Z,93952.00
2022-12-03T01:15:38.503Z,93951.17
2022-12-03T01:16:11.767Z,93950.30
2022-12-03T01:16:46.252Z,93947.50
2022-12-03T01:17:19.512Z,93944.92
2022-12-03T01:17:54.478Z,93951.72
2022-12-03T01:18:27.773Z,93949.16
2022-12-03T01:19:01.077Z,93951.67
2022-12-03T01:19:35.507Z,93951.73
2022-12-03T01:20:10.145Z,93949.74
2022-12-03T01:20:43.562Z,93952.71
2022-12-03T01:21:19.857Z,93954.29
2022-12-03T01:21:53.050Z,93951.91
2022-12-03T01:22:26.618Z,93954.69
2022-12-03T01:22:59.815Z,93957.98
2022-12-03T01:23:33.028Z,93957.52
2022-12-03T01:24:06.601Z,93954.88
2022-12-03T01:24:39.776Z,93957.05
2022-12-03T01:25:13.028Z,93955.70
2022-12-03T01:25:46.412Z,93958.30
2022-12-03T01:26:19.624Z,93957.20
2022-12-03T01:26:52.953Z,93960.20
2022-12-03T01:27:26.325Z,93960.98
2022-12-03T01:28:00.615Z,93963.63
2022-12-03T01:28:33.964Z,93960.63
2022-12-03T01:29:07.629Z,93961.09
2022-12-03T01:29:41.065Z,93961.29
2022-12-03T01:30:16.112Z,93961.84
2022-12-03T01:31:09.391Z,93964.05
2022-12-03T01:32:01.087Z,93964.50
2022-12-03T01:32:34.386Z,93960.84
2022-12-03T01:33:10.612Z,93959.30
2022-12-03T01:33:43.892Z,93964.08
2022-12-03T01:34:17.413Z,93961.91
2022-12-03T01:34:53.365Z,93961.52
2022-12-03T01:35:26.813Z,93962.35
2022-12-03T01:35:59.981Z,93961.08
2022-12-03T01:36:34.525Z,93960.09
2022-12-03T01:37:07.818Z,93958.92
2022-12-03T01:37:41.193Z,93957.44
2022-12-03T01:38:14.433Z,93960.52
2022-12-03T01:38:48.918Z,93957.33
2022-12-03T01:39:22.173Z,93956.84
2022-12-03T01:39:57.639Z,93956.95
2022-12-03T01:40:31.883Z,93957.63
2022-12-03T01:41:10.097Z,93955.21
2022-12-03T01:41:49.234Z,93952.41
2022-12-03T01:42:29.119Z,93955.75
2022-12-03T01:43:02.363Z,93956.16
2022-12-03T01:43:36.799Z,93956.23
2022-12-03T01:44:32.465Z,93957.80
2022-12-03T01:45:07.306Z,93964.88
2022-12-03T01:45:40.451Z,93961.84
2022-12-03T01:46:27.052Z,93962.23
2022-12-03T01:47:04.416Z,93966.27
2022-12-03T01:47:38.511Z,93965.03
2022-12-03T01:48:16.878Z,93964.20
2022-12-03T01:48:52.908Z,93960.23
2022-12-03T01:49:42.544Z,93961.42
2022-12-03T01:50:26.313Z,93959.52
2022-12-03T01:50:59.553Z,93962.45
2022-12-03T01:51:32.946Z,93961.35
2022-12-03T01:52:06.670Z,93962.16
2022-12-03T01:52:41.048Z,93961.61
2022-12-03T01:53:16.223Z,93959.22
2022-12-03T01:53:49.845Z,93960.30
2022-12-03T01:54:31.281Z,93957.35
2022-12-03T01:55:06.630Z,93954.90
2022-12-03T01:55:40.739Z,93957.11
2022-12-03T01:56:18.613Z,93956.58
2022-12-03T01:56:55.792Z,93957.20
2022-12-03T01:57:40.143Z,93955.27
2022-12-03T01:58:15.022Z,93958.41
2022-12-03T01:58:48.782Z,93956.43
2022-12-03T01:59:28.326Z,93958.23
2022-12-03T02:00:02.057Z,93956.14
2022-12-03T02:00:41.260Z,93955.98
2022-12-03T02:01:17.871Z,93954.77
2022-12-03T02:01:51.208Z,93956.00
2022-12-03T02:02:32.393Z,93954.89
2022-12-03T02:03:11.724Z,93956.94
2022-12-03T02:03:46.369Z,93954.63
2022-12-03T02:04:25.439Z,93953.00
2022-12-03T02:05:00.322Z,93953.04
2022-12-03T02:05:34.122Z,93950.80
2022-12-03T02:06:18.306Z,93950.77
2022-12-03T02:06:51.741Z,93955.65
2022-12-03T02:07:33.575Z,93957.52
2022-12-03T02:08:37.492Z,93955.23
2022-12-03T02:09:13.179Z,93949.67
2022-12-03T02:09:46.573Z,93953.50
2022-12-03T02:10:28.448Z,93957.83
2022-12-03T02:11:05.938Z,93952.98
2022-12-03T02:11:44.783Z,93957.65
2022-12-03T02:12:25.189Z,93953.31
2022-12-03T02:13:01.428Z,93951.95
2022-12-03T02:13:37.603Z,93949.47
2022-12-03T02:14:15.527Z,93946.08
2022-12-03T02:14:49.293Z,93949.75
2022-12-03T02:15:26.941Z,93952.73
2022-12-03T02:16:00.204Z,93955.32
2022-12-03T02:16:36.021Z,93952.35
2022-12-03T02:17:13.212Z,93954.06
2022-12-03T02:17:46.564Z,93956.17
2022-12-03T02:18:20.764Z,93952.56
2022-12-03T02:18:54.012Z,93954.65
2022-12-03T02:19:30.138Z,93953.60
2022-12-03T02:20:07.545Z,93952.55
2022-12-03T02:21:11.300Z,93949.90
2022-12-03T02:22:02.483Z,93949.02
2022-12-03T02:23:10.091Z,93949.64
2022-12-03T02:24:05.615Z,93948.88
2022-12-03T02:24:55.935Z,93945.66
2022-12-03T02:25:32.439Z,93951.50
2022-12-03T02:26:08.640Z,93947.89
2022-12-03T02:26:42.055Z,93946.30
2022-12-03T02:27:15.391Z,93944.42
2022-12-03T02:27:49.312Z,93944.20
2022-12-03T02:28:25.346Z,93941.26
2022-12-03T02:28:58.805Z,93943.35
2022-12-03T02:29:33.098Z,93941.61
2022-12-03T02:30:08.033Z,93938.12
2022-12-03T02:30:41.384Z,93941.01
2022-12-03T02:31:14.789Z,93943.58
2022-12-03T02:31:48.170Z,93945.08
2022-12-03T02:32:23.651Z,93943.27
2022-12-03T02:33:00.563Z,93942.79
2022-12-03T02:33:33.996Z,93942.35
2022-12-03T02:34:07.750Z,93943.86
2022-12-03T02:34:42.663Z,93947.23
2022-12-03T02:35:27.430Z,93944.70
2022-12-03T02:36:04.016Z,93944.13
2022-12-03T02:36:40.372Z,93943.75
2022-12-03T02:37:27.251Z,93947.59
2022-12-03T02:38:08.579Z,93950.61
2022-12-03T02:38:43.941Z,93947.23
2022-12-03T02:39:19.208Z,93947.18
2022-12-03T02:39:58.720Z,93949.34
2022-12-03T02:40:34.117Z,93951.48
2022-12-03T02:41:32.343Z,93954.61
2022-12-03T02:42:27.182Z,93951.98
2022-12-03T02:43:03.226Z,93958.80
2022-12-03T02:43:37.534Z,93953.88
2022-12-03T02:44:11.621Z,93956.11
2022-12-03T02:44:45.029Z,93953.50
2022-12-03T02:45:22.491Z,93954.79
2022-12-03T02:45:58.623Z,93951.72
2022-12-03T02:46:32.912Z,93951.39
2022-12-03T02:47:06.420Z,93956.77
2022-12-03T02:47:44.583Z,93952.84
2022-12-03T02:48:25.765Z,93956.23
2022-12-03T02:50:48.822Z,93953.92
2022-12-03T02:51:22.047Z,93957.59
2022-12-03T02:51:58.775Z,93953.62
2022-12-03T02:52:34.506Z,93958.86
2022-12-03T02:53:12.813Z,93957.43
2022-12-03T02:53:48.492Z,93955.20
2022-12-03T02:54:22.942Z,93959.95
2022-12-03T02:54:56.459Z,93955.95
2022-12-03T02:55:36.532Z,93958.04
2022-12-03T02:56:25.465Z,93957.38
2022-12-03T02:56:59.940Z,93956.92
2022-12-03T02:57:35.204Z,93958.48
2022-12-03T02:58:11.259Z,93955.70
2022-12-03T02:58:55.464Z,93955.27
2022-12-03T02:59:29.018Z,93951.75
2022-12-03T03:00:06.180Z,93953.15
2022-12-03T03:00:40.200Z,93949.95
2022-12-03T03:01:15.624Z,93950.39
2022-12-03T03:01:49.922Z,93948.66
2022-12-03T03:02:23.424Z,93945.64
2022-12-03T03:02:57.378Z,93950.38
2022-12-03T03:03:33.103Z,93948.25
2022-12-03T03:04:07.020Z,93951.52
2022-12-03T03:04:41.470Z,93951.29
2022-12-03T03:05:18.094Z,93951.30
2022-12-03T03:05:51.902Z,93952.84
2022-12-03T03:06:33.220Z,93954.33
2022-12-03T03:07:06.577Z,93955.02
2022-12-03T03:07:40.881Z,93955.48
2022-12-03T03:08:14.978Z,93955.14
2022-12-03T03:08:49.466Z,93951.52
2022-12-03T03:09:23.023Z,93958.59
2022-12-03T03:09:56.541Z,93954.05
2022-12-03T03:10:30.975Z,93953.73
2022-12-03T03:11:04.397Z,93954.92
2022-12-03T03:11:37.998Z,93956.58
2022-12-03T03:12:11.797Z,93959.61
2022-12-03T03:12:45.083Z,93958.88
2022-12-03T03:13:19.918Z,93958.78
2022-12-03T03:13:53.353Z,93962.27
2022-12-03T03:14:26.654Z,93956.63
2022-12-03T03:15:03.188Z,93955.36
2022-12-03T03:15:38.284Z,93954.69
2022-12-03T03:16:11.617Z,93955.34
2022-12-03T03:16:45.042Z,93953.88
2022-12-03T03:17:18.499Z,93949.34
2022-12-03T03:17:52.359Z,93950.00
2022-12-03T03:18:25.707Z,93945.55
2022-12-03T03:18:59.028Z,93949.73
2022-12-03T03:19:33.148Z,93948.78
2022-12-03T03:20:08.838Z,93946.80
2022-12-03T03:20:42.838Z,93950.61
2022-12-03T03:21:16.098Z,93950.49
2022-12-03T03:21:49.280Z,93951.29
2022-12-03T03:22:22.555Z,93952.20
2022-12-03T03:23:05.978Z,93951.19
2022-12-03T03:23:41.653Z,93948.70
2022-12-03T03:24:14.905Z,93949.11
2022-12-03T03:24:48.103Z,93946.32
2022-12-03T03:25:22.551Z,93947.07
2022-12-03T03:26:14.089Z,93941.08
2022-12-03T03:26:47.897Z,93943.58
2022-12-03T03:27:21.168Z,93942.32
2022-12-03T03:27:56.927Z,93942.55
2022-12-03T03:28:31.524Z,93947.91
2022-12-03T03:29:05.235Z,93947.71
2022-12-03T03:29:40.639Z,93944.73
2022-12-03T03:30:17.333Z,93947.83
2022-12-03T03:30:55.992Z,93948.87
2022-12-03T03:31:29.389Z,93950.68
2022-12-03T03:32:03.705Z,93949.81
2022-12-03T03:32:38.598Z,93953.68
2022-12-03T03:33:13.722Z,93951.90
2022-12-03T03:33:49.863Z,93949.50
2022-12-03T03:34:23.128Z,93952.45
2022-12-03T03:35:02.562Z,93947.94
2022-12-03T03:35:37.343Z,93949.38
2022-12-03T03:36:13.061Z,93950.91
2022-12-03T03:36:47.147Z,93946.50
2022-12-03T03:37:24.932Z,93945.89
2022-12-03T03:38:02.893Z,93942.77
2022-12-03T03:38:37.245Z,93940.84
2022-12-03T03:39:16.118Z,93939.45
2022-12-03T03:39:49.595Z,93933.19
2022-12-03T03:40:22.854Z,93939.09
2022-12-03T03:40:58.272Z,93938.38
2022-12-03T03:41:36.829Z,93934.00
2022-12-03T03:42:10.198Z,93938.04
2022-12-03T03:42:43.518Z,93942.56
2022-12-03T03:43:17.913Z,93940.91
2022-12-03T03:43:51.227Z,93941.95
2022-12-03T03:44:26.748Z,93944.34
2022-12-03T03:45:00.181Z,93942.67
2022-12-03T03:45:33.800Z,93947.84
2022-12-03T03:46:07.851Z,93946.83
2022-12-03T03:46:41.507Z,93945.71
2022-12-03T03:47:16.180Z,93944.48
2022-12-03T03:47:53.047Z,93948.23
2022-12-03T03:48:26.611Z,93945.49
2022-12-03T03:49:03.803Z,93946.91
2022-12-03T03:49:37.303Z,93944.20
2022-12-03T03:50:12.413Z,93944.77
2022-12-03T03:50:46.470Z,93943.04
2022-12-03T03:51:20.348Z,93940.52
2022-12-03T03:51:55.103Z,93944.80
2022-12-03T03:52:28.694Z,93944.40
2022-12-03T03:53:06.313Z,93945.23
2022-12-03T03:53:49.790Z,93943.20
2022-12-03T03:54:23.889Z,93945.88
2022-12-03T03:55:00.275Z,93948.21
2022-12-03T03:55:35.890Z,93948.83
2022-12-03T03:56:09.849Z,93948.98
2022-12-03T03:56:43.357Z,93944.29
2022-12-03T03:57:16.847Z,93942.69
2022-12-03T03:57:50.628Z,93943.95
2022-12-03T03:58:26.433Z,93941.30
2022-12-03T03:59:00.085Z,93943.45
2022-12-03T03:59:35.529Z,93942.26
2022-12-03T04:00:09.561Z,93940.39
2022-12-03T04:00:46.869Z,93941.63
2022-12-03T04:01:20.283Z,93941.91
2022-12-03T04:01:53.653Z,93940.89
2022-12-03T04:02:28.799Z,93939.14
2022-12-03T04:03:03.968Z,93937.97
2022-12-03T04:03:37.562Z,93941.45
2022-12-03T04:04:26.788Z,93941.70
2022-12-03T04:05:00.442Z,93943.50
2022-12-03T04:05:33.868Z,93944.89
2022-12-03T04:06:07.407Z,93947.03
2022-12-03T04:06:40.710Z,93944.23
2022-12-03T04:07:14.984Z,93946.73
2022-12-03T04:07:53.337Z,93944.57
2022-12-03T04:08:26.626Z,93944.40
2022-12-03T04:09:07.147Z,93945.70
2022-12-03T04:09:40.264Z,93942.30
2022-12-03T04:10:33.114Z,93939.66
2022-12-03T04:11:25.263Z,93942.77
2022-12-03T04:12:23.475Z,93938.31
2022-12-03T04:12:56.828Z,93937.49
2022-12-03T04:13:30.048Z,93934.90
2022-12-03T04:14:03.477Z,93938.38
2022-12-03T04:14:36.699Z,93934.85
2022-12-03T04:15:14.367Z,93934.68
2022-12-03T04:15:48.060Z,93933.45
2022-12-03T04:16:22.202Z,93933.21
2022-12-03T04:16:55.548Z,93935.34
2022-12-03T04:17:28.853Z,93931.38
2022-12-03T04:18:20.701Z,93932.98
2022-12-03T04:18:54.008Z,93932.77
2022-12-03T04:19:27.272Z,93935.04
2022-12-03T04:20:00.552Z,93930.59
2022-12-03T04:20:33.829Z,93932.27
2022-12-03T04:21:26.285Z,93937.16
2022-12-03T04:22:19.244Z,93933.67
2022-12-03T04:22:52.428Z,93929.61
2022-12-03T04:23:30.733Z,93936.73
2022-12-03T04:24:05.813Z,93936.13
2022-12-03T04:24:38.981Z,93938.77
2022-12-03T04:25:31.004Z,93934.70
2022-12-03T04:26:22.976Z,93936.06
2022-12-03T04:27:17.493Z,93930.77
2022-12-03T04:28:10.397Z,93935.95
2022-12-03T04:28:49.547Z,93934.42
2022-12-03T04:29:23.516Z,93933.14
2022-12-03T04:29:56.668Z,93928.45
2022-12-03T04:30:30.021Z,93928.55
2022-12-03T04:31:26.040Z,93930.91
2022-12-03T04:32:18.039Z,93935.56
2022-12-03T04:33:10.069Z,93939.88
2022-12-03T04:34:02.056Z,93933.16
2022-12-03T04:34:54.528Z,93936.21
2022-12-03T04:35:43.183Z,93933.56
2022-12-03T04:36:20.388Z,93928.77
2022-12-03T04:36:54.776Z,93932.88
2022-12-03T04:37:28.253Z,93933.54
2022-12-03T04:38:02.663Z,93932.40
2022-12-03T04:38:35.912Z,93934.75
2022-12-03T04:39:09.107Z,93937.05
2022-12-03T04:39:42.323Z,93939.33
2022-12-03T04:40:34.084Z,93939.10
2022-12-03T04:41:07.299Z,93942.05
2022-12-03T04:41:40.722Z,93941.81
2022-12-03T04:42:14.244Z,93939.42
2022-12-03T04:42:48.685Z,93945.06
2022-12-03T04:43:22.093Z,93946.59
2022-12-03T04:44:13.971Z,93945.77
2022-12-03T04:44:47.342Z,93949.27
2022-12-03T04:45:20.603Z,93950.27
2022-12-03T04:45:53.898Z,93949.44
2022-12-03T04:46:31.901Z,93948.77
2022-12-03T04:47:16.646Z,93950.08
2022-12-03T04:47:52.854Z,93948.52
2022-12-03T04:48:26.571Z,93949.45
2022-12-03T04:49:01.962Z,93947.56
2022-12-03T04:49:37.178Z,93950.47
2022-12-03T04:50:11.323Z,93952.13
2022-12-03T04:50:44.615Z,93952.59
2022-12-03T04:51:17.795Z,93949.11
2022-12-03T04:51:51.063Z,93948.20
2022-12-03T04:52:24.308Z,93951.51
2022-12-03T04:52:58.263Z,93944.95
2022-12-03T04:53:36.219Z,93952.05
2022-12-03T04:54:12.302Z,93947.14
2022-12-03T04:54:45.663Z,93948.88
2022-12-03T04:55:18.850Z,93947.98
2022-12-03T04:55:54.626Z,93944.14
2022-12-03T04:56:27.991Z,93944.61
2022-12-03T04:57:01.628Z,93941.71
2022-12-03T04:57:34.825Z,93941.87
2022-12-03T04:58:08.069Z,93947.52
2022-12-03T04:58:41.288Z,93944.59
2022-12-03T04:59:16.527Z,93946.04
2022-12-03T04:59:50.025Z,93945.54
2022-12-03T05:00:23.465Z,93952.47
2022-12-03T05:00:56.831Z,93949.60
2022-12-03T05:01:31.353Z,93947.71
2022-12-03T05:02:06.352Z,93947.29
2022-12-03T05:02:41.606Z,93945.20
2022-12-03T05:03:14.976Z,93943.46
2022-12-03T05:03:48.245Z,93947.55
2022-12-03T05:04:21.545Z,93946.81
2022-12-03T05:04:56.830Z,93946.77
2022-12-03T05:05:32.595Z,93938.94
2022-12-03T05:06:05.913Z,93944.77
2022-12-03T05:06:40.323Z,93942.90
2022-12-03T05:07:13.602Z,93940.55
2022-12-03T05:07:48.673Z,93938.96
2022-12-03T05:08:21.942Z,93937.48
2022-12-03T05:08:55.141Z,93934.44
2022-12-03T05:09:29.393Z,93934.23
2022-12-03T05:10:02.535Z,93934.27
2022-12-03T05:10:35.729Z,93937.82
2022-12-03T05:11:09.076Z,93934.15
2022-12-03T05:11:44.084Z,93936.35
2022-12-03T05:12:17.374Z,93933.36
2022-12-03T05:12:51.890Z,93931.98
2022-12-03T05:13:25.285Z,93932.59
2022-12-03T05:13:58.493Z,93932.66
2022-12-03T05:14:33.588Z,93927.86
2022-12-03T05:15:07.651Z,93930.86
2022-12-03T05:15:40.914Z,93936.11
2022-12-03T05:16:14.235Z,93934.61
2022-12-03T05:16:47.659Z,93934.13
2022-12-03T05:17:24.006Z,93933.56
2022-12-03T05:17:57.236Z,93934.76
2022-12-03T05:18:30.451Z,93933.88
2022-12-03T05:19:04.923Z,93935.43
2022-12-03T05:19:57.021Z,93932.44
2022-12-03T05:20:43.841Z,93930.52
2022-12-03T05:21:19.093Z,93930.71
2022-12-03T05:21:52.338Z,93930.67
2022-12-03T05:22:25.849Z,93931.48
2022-12-03T05:22:59.037Z,93930.95
2022-12-03T05:23:32.337Z,93934.28
2022-12-03T05:24:06.032Z,93929.67
2022-12-03T05:24:39.308Z,93932.91
2022-12-03T05:25:14.841Z,93937.86
2022-12-03T05:25:48.157Z,93926.39
2022-12-03T05:26:22.927Z,93933.80
2022-12-03T05:26:56.172Z,93931.20
2022-12-03T05:27:29.418Z,93931.21
2022-12-03T05:28:06.792Z,93935.88
2022-12-03T05:28:40.178Z,93934.23
2022-12-03T05:29:13.376Z,93931.27
2022-12-03T05:29:46.705Z,93937.74
2022-12-03T05:30:19.944Z,93932.27
2022-12-03T05:30:53.295Z,93934.45
2022-12-03T05:31:26.846Z,93934.08
2022-12-03T05:32:00.083Z,93933.02
2022-12-03T05:32:33.313Z,93937.94
2022-12-03T05:33:07.763Z,93937.53
2022-12-03T05:33:44.223Z,93935.77
2022-12-03T05:34:17.928Z,93932.45
2022-12-03T05:34:51.338Z,93933.59
2022-12-03T05:35:24.903Z,93933.28
2022-12-03T05:35:58.507Z,93932.38
2022-12-03T05:36:31.984Z,93930.45
2022-12-03T05:37:05.250Z,93929.41
2022-12-03T05:37:38.629Z,93929.98
2022-12-03T05:38:11.838Z,93932.41
2022-12-03T05:38:45.043Z,93927.74
2022-12-03T05:39:18.246Z,93932.72
2022-12-03T05:39:53.983Z,93932.98
2022-12-03T05:40:27.183Z,93932.84
2022-12-03T05:41:00.737Z,93933.23
2022-12-03T05:41:52.580Z,93932.33
2022-12-03T05:42:44.796Z,93930.23
2022-12-03T05:43:18.224Z,93920.35
2022-12-03T05:43:51.443Z,93932.23
2022-12-03T05:44:26.847Z,93930.61
2022-12-03T05:45:02.492Z,93926.34
2022-12-03T05:45:38.597Z,93926.49
2022-12-03T05:46:11.889Z,93929.33
2022-12-03T05:46:45.121Z,93926.90
2022-12-03T05:47:18.343Z,93926.08
2022-12-03T05:47:53.417Z,93924.55
2022-12-03T05:48:28.104Z,93925.83
2022-12-03T05:49:01.348Z,93924.53
2022-12-03T05:49:34.748Z,93923.02
2022-12-03T05:50:08.367Z,93923.48
2022-12-03T05:50:45.962Z,93921.09
2022-12-03T05:51:25.091Z,93922.73
2022-12-03T05:52:00.753Z,93923.67
2022-12-03T05:52:34.988Z,93925.44
2022-12-03T05:53:08.182Z,93924.20
2022-12-03T05:53:41.382Z,93925.55
2022-12-03T05:54:14.655Z,93924.99
2022-12-03T05:54:50.038Z,93927.27
2022-12-03T05:55:25.425Z,93924.43
2022-12-03T05:55:58.858Z,93928.07
2022-12-03T05:56:33.985Z,93924.70
2022-12-03T05:57:07.232Z,93925.79
2022-12-03T05:57:41.911Z,93921.27
2022-12-03T05:58:15.178Z,93922.48
2022-12-03T05:58:48.410Z,93924.60
2022-12-03T05:59:21.756Z,93921.23
2022-12-03T05:59:55.007Z,93918.52
2022-12-03T06:00:31.262Z,93917.31
2022-12-03T06:01:04.420Z,93924.34
2022-12-03T06:01:38.867Z,93919.76
2022-12-03T06:02:12.289Z,93925.85
2022-12-03T06:02:45.836Z,93922.55
2022-12-03T06:03:19.591Z,93924.41
2022-12-03T06:03:53.160Z,93928.84
2022-12-03T06:04:26.475Z,93928.33
2022-12-03T06:04:59.895Z,93931.91
2022-12-03T06:05:35.052Z,93931.94
2022-12-03T06:06:08.487Z,93932.33
2022-12-03T06:06:41.728Z,93933.70
2022-12-03T06:07:15.010Z,93933.79
2022-12-03T06:07:52.546Z,93934.79
2022-12-03T06:08:25.798Z,93931.36
2022-12-03T06:08:59.332Z,93932.23
2022-12-03T06:09:33.760Z,93927.96
2022-12-03T06:10:12.948Z,93925.56
2022-12-03T06:10:46.199Z,93925.63
2022-12-03T06:11:19.451Z,93927.06
2022-12-03T06:11:54.319Z,93925.61
2022-12-03T06:12:27.767Z,93927.47
2022-12-03T06:13:01.154Z,93928.80
2022-12-03T06:13:34.574Z,93926.41
2022-12-03T06:14:08.034Z,93924.23
2022-12-03T06:14:41.201Z,93922.98
2022-12-03T06:15:16.777Z,93918.54
2022-12-03T06:15:50.137Z,93921.86
2022-12-03T06:16:23.352Z,93924.13
2022-12-03T06:16:56.663Z,93920.45
2022-12-03T06:17:29.917Z,93920.21
2022-12-03T06:18:03.232Z,93924.24
2022-12-03T06:18:38.997Z,93921.08
2022-12-03T06:19:12.156Z,93925.29
2022-12-03T06:19:45.380Z,93924.56
2022-12-03T06:20:20.450Z,93927.23
2022-12-03T06:20:53.808Z,93929.20
2022-12-03T06:21:27.007Z,93917.23
2022-12-03T06:22:00.367Z,93930.05
2022-12-03T06:22:33.677Z,93930.73
2022-12-03T06:23:06.952Z,93928.18
2022-12-03T06:23:44.886Z,93927.38
2022-12-03T06:24:18.333Z,93928.54
2022-12-03T06:24:51.881Z,93926.63
2022-12-03T06:25:25.342Z,93928.71
2022-12-03T06:25:58.589Z,93928.72
2022-12-03T06:26:31.804Z,93931.42
2022-12-03T06:27:05.500Z,93929.59
2022-12-03T06:27:38.747Z,93929.73
2022-12-03T06:28:11.932Z,93928.70
2022-12-03T06:28:47.753Z,93930.77
2022-12-03T06:29:22.313Z,93930.23
2022-12-03T06:29:55.504Z,93932.61
2022-12-03T06:30:28.710Z,93927.83
2022-12-03T06:31:06.340Z,93930.71
2022-12-03T06:31:39.681Z,93926.55
2022-12-03T06:32:13.176Z,93925.23
2022-12-03T06:32:46.412Z,93922.08
2022-12-03T06:33:19.606Z,93923.27
2022-12-03T06:33:55.738Z,93922.65
2022-12-03T06:34:28.979Z,93927.44
2022-12-03T06:35:02.509Z,93920.48
2022-12-03T06:35:35.971Z,93921.89
2022-12-03T06:36:09.389Z,93920.54
2022-12-03T06:36:42.803Z,93920.48
2022-12-03T06:37:16.170Z,93917.56
2022-12-03T06:37:49.876Z,93916.69
2022-12-03T06:38:23.316Z,93918.78
2022-12-03T06:38:56.545Z,93919.11
2022-12-03T06:39:29.903Z,93918.33
2022-12-03T06:40:03.271Z,93918.78
2022-12-03T06:40:38.460Z,93916.25
2022-12-03T06:41:11.804Z,93915.46
2022-12-03T06:41:45.363Z,93914.69
2022-12-03T06:42:19.372Z,93916.77
2022-12-03T06:42:53.740Z,93913.98
2022-12-03T06:43:31.142Z,93916.70
2022-12-03T06:44:04.784Z,93915.37
2022-12-03T06:44:38.048Z,93917.40
2022-12-03T06:45:14.359Z,93917.48
2022-12-03T06:45:48.002Z,93917.52
2022-12-03T06:46:23.665Z,93917.14
2022-12-03T06:46:56.913Z,93912.31
2022-12-03T06:47:30.246Z,93915.96
2022-12-03T06:48:03.519Z,93917.16
2022-12-03T06:48:36.739Z,93918.28
2022-12-03T06:49:10.078Z,93920.48
2022-12-03T06:49:44.255Z,93919.70
2022-12-03T06:50:20.566Z,93923.78
2022-12-03T06:50:56.797Z,93925.61
2022-12-03T06:51:31.660Z,93922.45
2022-12-03T06:52:05.105Z,93921.74
2022-12-03T06:52:38.496Z,93924.11
2022-12-03T06:53:19.040Z,93926.13
2022-12-03T06:53:52.253Z,93924.94
2022-12-03T06:54:25.454Z,93926.70
2022-12-03T06:54:58.643Z,93925.78
2022-12-03T06:55:31.921Z,93923.74
2022-12-03T06:56:05.645Z,93923.26
2022-12-03T06:56:44.883Z,93922.91
2022-12-03T06:57:18.807Z,93925.09
2022-12-03T06:57:51.937Z,93923.64
2022-12-03T06:58:25.357Z,93926.58
2022-12-03T06:59:00.997Z,93925.04
2022-12-03T06:59:35.940Z,93927.70
2022-12-03T07:00:11.510Z,93924.40
2022-12-03T07:00:44.761Z,93927.90